sensor_id;sensor_type;location;lat;lon;timestamp;temperature;humidity
670;DHT22;317;48.758;9.302;2022-08-01T00:02:16;20.30;99.90
670;DHT22;317;48.758;9.302;2022-08-01T00:04:44;20.20;99.90
670;DHT22;317;48.758;9.302;2022-08-01T00:07:11;20.30;99.90
670;DHT22;317;48.758;9.302;2022-08-01T00:09:40;20.20;99.90
670;DHT22;317;48.758;9.302;2022-08-01T00:12:07;20.10;99.90
670;DHT22;317;48.758;9.302;2022-08-01T00:14:33;20.10;99.90
670;DHT22;317;48.758;9.302;2022-08-01T00:17:00;20.00;99.90
670;DHT22;317;48.758;9.302;2022-08-01T00:19:27;20.00;99.90
670;DHT22;317;48.758;9.302;2022-08-01T00:21:55;20.00;99.90
670;DHT22;317;48.758;9.302;2022-08-01T00:24:22;19.90;99.90
670;DHT22;317;48.758;9.302;2022-08-01T00:26:49;19.90;99.90
670;DHT22;317;48.758;9.302;2022-08-01T00:29:15;19.90;99.90
670;DHT22;317;48.758;9.302;2022-08-01T00:31:42;19.80;99.90
670;DHT22;317;48.758;9.302;2022-08-01T00:34:09;19.80;99.90
670;DHT22;317;48.758;9.302;2022-08-01T00:36:36;19.80;99.90
670;DHT22;317;48.758;9.302;2022-08-01T00:39:04;19.70;99.90
670;DHT22;317;48.758;9.302;2022-08-01T00:41:31;19.70;99.90
670;DHT22;317;48.758;9.302;2022-08-01T00:44:01;19.70;99.90
670;DHT22;317;48.758;9.302;2022-08-01T00:46:28;19.70;99.90
670;DHT22;317;48.758;9.302;2022-08-01T00:48:55;19.60;99.90
670;DHT22;317;48.758;9.302;2022-08-01T00:51:22;19.60;99.90
670;DHT22;317;48.758;9.302;2022-08-01T00:53:50;19.60;99.90
670;DHT22;317;48.758;9.302;2022-08-01T00:56:19;19.60;99.90
670;DHT22;317;48.758;9.302;2022-08-01T00:58:46;19.60;99.90
670;DHT22;317;48.758;9.302;2022-08-01T01:01:13;19.50;99.90
670;DHT22;317;48.758;9.302;2022-08-01T01:03:40;19.50;99.90
670;DHT22;317;48.758;9.302;2022-08-01T01:06:19;19.50;99.90
670;DHT22;317;48.758;9.302;2022-08-01T01:09:04;19.60;99.90
670;DHT22;317;48.758;9.302;2022-08-01T01:11:43;19.50;99.90
670;DHT22;317;48.758;9.302;2022-08-01T01:14:21;19.50;99.90
670;DHT22;317;48.758;9.302;2022-08-01T01:16:51;19.50;99.90
670;DHT22;317;48.758;9.302;2022-08-01T01:19:23;19.50;99.90
670;DHT22;317;48.758;9.302;2022-08-01T01:22:07;19.40;99.90
670;DHT22;317;48.758;9.302;2022-08-01T01:24:42;19.40;99.90
670;DHT22;317;48.758;9.302;2022-08-01T01:27:21;19.40;99.90
670;DHT22;317;48.758;9.302;2022-08-01T01:29:54;19.40;99.90
670;DHT22;317;48.758;9.302;2022-08-01T01:32:25;19.40;99.90
670;DHT22;317;48.758;9.302;2022-08-01T01:34:55;19.40;99.90
670;DHT22;317;48.758;9.302;2022-08-01T01:37:25;19.40;99.90
670;DHT22;317;48.758;9.302;2022-08-01T01:39:53;19.40;99.90
670;DHT22;317;48.758;9.302;2022-08-01T01:42:22;19.40;99.90
670;DHT22;317;48.758;9.302;2022-08-01T01:44:54;19.40;99.90
670;DHT22;317;48.758;9.302;2022-08-01T01:47:23;19.50;99.90
670;DHT22;317;48.758;9.302;2022-08-01T01:49:50;19.50;99.90
670;DHT22;317;48.758;9.302;2022-08-01T01:52:19;19.50;99.90
670;DHT22;317;48.758;9.302;2022-08-01T01:54:48;19.60;99.90
670;DHT22;317;48.758;9.302;2022-08-01T01:57:18;19.60;99.90
670;DHT22;317;48.758;9.302;2022-08-01T01:59:46;19.60;99.90
670;DHT22;317;48.758;9.302;2022-08-01T02:02:16;19.60;99.90
670;DHT22;317;48.758;9.302;2022-08-01T02:04:45;19.70;99.90
670;DHT22;317;48.758;9.302;2022-08-01T02:07:17;19.80;99.90
670;DHT22;317;48.758;9.302;2022-08-01T02:09:45;19.80;99.90
670;DHT22;317;48.758;9.302;2022-08-01T02:12:13;19.80;99.90
670;DHT22;317;48.758;9.302;2022-08-01T02:14:40;19.80;99.90
670;DHT22;317;48.758;9.302;2022-08-01T02:17:11;19.70;99.90
670;DHT22;317;48.758;9.302;2022-08-01T02:19:40;19.80;99.90
670;DHT22;317;48.758;9.302;2022-08-01T02:22:10;19.70;99.90
670;DHT22;317;48.758;9.302;2022-08-01T02:24:42;19.70;99.90
670;DHT22;317;48.758;9.302;2022-08-01T02:27:14;19.60;99.90
670;DHT22;317;48.758;9.302;2022-08-01T02:29:46;19.60;99.90
670;DHT22;317;48.758;9.302;2022-08-01T02:32:19;19.50;99.90
670;DHT22;317;48.758;9.302;2022-08-01T02:34:49;19.50;99.90
670;DHT22;317;48.758;9.302;2022-08-01T02:37:17;19.40;99.90
670;DHT22;317;48.758;9.302;2022-08-01T02:39:47;19.40;99.90
670;DHT22;317;48.758;9.302;2022-08-01T02:42:15;19.30;99.90
670;DHT22;317;48.758;9.302;2022-08-01T02:44:43;19.20;99.90
670;DHT22;317;48.758;9.302;2022-08-01T02:47:10;19.20;99.90
670;DHT22;317;48.758;9.302;2022-08-01T02:49:42;19.10;99.90
670;DHT22;317;48.758;9.302;2022-08-01T02:52:12;19.10;99.90
670;DHT22;317;48.758;9.302;2022-08-01T02:54:40;19.10;99.90
670;DHT22;317;48.758;9.302;2022-08-01T02:57:09;19.10;99.90
670;DHT22;317;48.758;9.302;2022-08-01T02:59:37;19.10;99.90
670;DHT22;317;48.758;9.302;2022-08-01T03:02:05;19.10;99.90
670;DHT22;317;48.758;9.302;2022-08-01T03:04:33;19.10;99.90
670;DHT22;317;48.758;9.302;2022-08-01T03:07:03;19.10;99.90
670;DHT22;317;48.758;9.302;2022-08-01T03:09:34;19.00;99.90
670;DHT22;317;48.758;9.302;2022-08-01T03:12:06;19.00;99.90
670;DHT22;317;48.758;9.302;2022-08-01T03:14:36;19.10;99.90
670;DHT22;317;48.758;9.302;2022-08-01T03:17:06;19.10;99.90
670;DHT22;317;48.758;9.302;2022-08-01T03:19:35;19.10;99.90
670;DHT22;317;48.758;9.302;2022-08-01T03:22:05;19.10;99.90
670;DHT22;317;48.758;9.302;2022-08-01T03:24:34;19.20;99.90
670;DHT22;317;48.758;9.302;2022-08-01T03:27:03;19.20;99.90
670;DHT22;317;48.758;9.302;2022-08-01T03:29:32;19.30;99.90
670;DHT22;317;48.758;9.302;2022-08-01T03:32:00;19.30;99.90
670;DHT22;317;48.758;9.302;2022-08-01T03:34:28;19.30;99.90
670;DHT22;317;48.758;9.302;2022-08-01T03:37:01;19.30;99.90
670;DHT22;317;48.758;9.302;2022-08-01T03:39:31;19.40;99.90
670;DHT22;317;48.758;9.302;2022-08-01T03:42:05;19.40;99.90
670;DHT22;317;48.758;9.302;2022-08-01T03:44:35;19.50;99.90
670;DHT22;317;48.758;9.302;2022-08-01T03:47:08;19.50;99.90
670;DHT22;317;48.758;9.302;2022-08-01T03:49:42;19.60;99.90
670;DHT22;317;48.758;9.302;2022-08-01T03:52:11;19.50;99.90
670;DHT22;317;48.758;9.302;2022-08-01T03:54:42;19.50;99.90
670;DHT22;317;48.758;9.302;2022-08-01T03:57:12;19.50;99.90
670;DHT22;317;48.758;9.302;2022-08-01T03:59:39;19.50;99.90
670;DHT22;317;48.758;9.302;2022-08-01T04:02:07;19.60;99.90
670;DHT22;317;48.758;9.302;2022-08-01T04:04:35;19.50;99.90
670;DHT22;317;48.758;9.302;2022-08-01T04:07:02;19.60;99.90
670;DHT22;317;48.758;9.302;2022-08-01T04:09:32;19.60;99.90
670;DHT22;317;48.758;9.302;2022-08-01T04:11:59;19.60;99.90
670;DHT22;317;48.758;9.302;2022-08-01T04:14:28;19.60;99.90
670;DHT22;317;48.758;9.302;2022-08-01T04:16:54;19.60;99.90
670;DHT22;317;48.758;9.302;2022-08-01T04:19:21;19.60;99.90
670;DHT22;317;48.758;9.302;2022-08-01T04:21:49;19.70;99.90
670;DHT22;317;48.758;9.302;2022-08-01T04:24:18;19.70;99.90
670;DHT22;317;48.758;9.302;2022-08-01T04:26:46;19.70;99.90
670;DHT22;317;48.758;9.302;2022-08-01T04:29:16;19.70;99.90
670;DHT22;317;48.758;9.302;2022-08-01T04:31:46;19.80;99.90
670;DHT22;317;48.758;9.302;2022-08-01T04:34:16;19.80;99.90
670;DHT22;317;48.758;9.302;2022-08-01T04:36:44;19.80;99.90
670;DHT22;317;48.758;9.302;2022-08-01T04:39:12;19.80;99.90
670;DHT22;317;48.758;9.302;2022-08-01T04:41:40;19.70;99.90
670;DHT22;317;48.758;9.302;2022-08-01T04:44:08;19.60;99.90
670;DHT22;317;48.758;9.302;2022-08-01T04:46:35;19.60;99.90
670;DHT22;317;48.758;9.302;2022-08-01T04:49:05;19.60;99.90
670;DHT22;317;48.758;9.302;2022-08-01T04:51:34;19.60;99.90
670;DHT22;317;48.758;9.302;2022-08-01T04:54:01;19.50;99.90
670;DHT22;317;48.758;9.302;2022-08-01T04:56:29;19.50;99.90
670;DHT22;317;48.758;9.302;2022-08-01T04:58:56;19.50;99.90
670;DHT22;317;48.758;9.302;2022-08-01T05:01:40;19.40;99.90
670;DHT22;317;48.758;9.302;2022-08-01T05:04:08;19.40;99.90
670;DHT22;317;48.758;9.302;2022-08-01T05:06:35;19.50;99.90
670;DHT22;317;48.758;9.302;2022-08-01T05:09:02;19.50;99.90
670;DHT22;317;48.758;9.302;2022-08-01T05:11:29;19.50;99.90
670;DHT22;317;48.758;9.302;2022-08-01T05:13:56;19.50;99.90
670;DHT22;317;48.758;9.302;2022-08-01T05:16:23;19.60;99.90
670;DHT22;317;48.758;9.302;2022-08-01T05:18:49;19.60;99.90
670;DHT22;317;48.758;9.302;2022-08-01T05:21:18;19.70;99.90
670;DHT22;317;48.758;9.302;2022-08-01T05:23:45;19.60;99.90
670;DHT22;317;48.758;9.302;2022-08-01T05:26:14;19.70;99.90
670;DHT22;317;48.758;9.302;2022-08-01T05:28:41;19.60;99.90
670;DHT22;317;48.758;9.302;2022-08-01T05:31:08;19.60;99.90
670;DHT22;317;48.758;9.302;2022-08-01T05:33:35;19.70;99.90
670;DHT22;317;48.758;9.302;2022-08-01T05:36:03;19.80;99.90
670;DHT22;317;48.758;9.302;2022-08-01T05:38:31;19.90;99.90
670;DHT22;317;48.758;9.302;2022-08-01T05:40:58;20.00;99.90
670;DHT22;317;48.758;9.302;2022-08-01T05:43:25;20.10;99.90
670;DHT22;317;48.758;9.302;2022-08-01T05:45:52;20.10;99.90
670;DHT22;317;48.758;9.302;2022-08-01T05:48:18;20.30;99.90
670;DHT22;317;48.758;9.302;2022-08-01T05:50:45;20.30;99.90
670;DHT22;317;48.758;9.302;2022-08-01T05:53:13;20.40;99.90
670;DHT22;317;48.758;9.302;2022-08-01T05:55:41;20.50;99.90
670;DHT22;317;48.758;9.302;2022-08-01T05:58:08;20.50;99.90
670;DHT22;317;48.758;9.302;2022-08-01T06:00:35;20.50;99.90
670;DHT22;317;48.758;9.302;2022-08-01T06:03:02;20.60;99.90
670;DHT22;317;48.758;9.302;2022-08-01T06:05:28;20.60;99.90
670;DHT22;317;48.758;9.302;2022-08-01T06:07:55;20.70;99.90
670;DHT22;317;48.758;9.302;2022-08-01T06:10:23;20.90;99.90
670;DHT22;317;48.758;9.302;2022-08-01T06:12:51;21.00;99.90
670;DHT22;317;48.758;9.302;2022-08-01T06:15:18;21.10;99.90
670;DHT22;317;48.758;9.302;2022-08-01T06:17:45;21.20;99.90
670;DHT22;317;48.758;9.302;2022-08-01T06:20:12;21.30;99.90
670;DHT22;317;48.758;9.302;2022-08-01T06:22:38;21.30;99.90
670;DHT22;317;48.758;9.302;2022-08-01T06:25:07;21.40;99.90
670;DHT22;317;48.758;9.302;2022-08-01T06:27:34;21.50;99.90
670;DHT22;317;48.758;9.302;2022-08-01T06:30:03;21.50;99.90
670;DHT22;317;48.758;9.302;2022-08-01T06:32:30;21.50;99.90
670;DHT22;317;48.758;9.302;2022-08-01T06:34:57;21.70;99.90
670;DHT22;317;48.758;9.302;2022-08-01T06:37:23;21.80;99.90
670;DHT22;317;48.758;9.302;2022-08-01T06:39:54;21.90;99.90
670;DHT22;317;48.758;9.302;2022-08-01T06:42:21;22.00;99.90
670;DHT22;317;48.758;9.302;2022-08-01T06:44:48;21.90;99.90
670;DHT22;317;48.758;9.302;2022-08-01T06:47:17;21.90;99.90
670;DHT22;317;48.758;9.302;2022-08-01T06:49:43;22.00;99.90
670;DHT22;317;48.758;9.302;2022-08-01T06:52:10;22.00;99.90
670;DHT22;317;48.758;9.302;2022-08-01T06:54:37;22.20;99.90
670;DHT22;317;48.758;9.302;2022-08-01T06:57:04;22.20;99.90
670;DHT22;317;48.758;9.302;2022-08-01T06:59:31;22.20;99.90
670;DHT22;317;48.758;9.302;2022-08-01T07:01:58;22.30;99.90
670;DHT22;317;48.758;9.302;2022-08-01T07:04:27;22.40;99.90
670;DHT22;317;48.758;9.302;2022-08-01T07:06:54;22.60;99.90
670;DHT22;317;48.758;9.302;2022-08-01T07:09:21;22.70;99.90
670;DHT22;317;48.758;9.302;2022-08-01T07:11:48;22.80;99.90
670;DHT22;317;48.758;9.302;2022-08-01T07:14:15;23.00;99.90
670;DHT22;317;48.758;9.302;2022-08-01T07:16:42;23.10;99.90
670;DHT22;317;48.758;9.302;2022-08-01T07:19:09;23.20;99.90
670;DHT22;317;48.758;9.302;2022-08-01T07:21:37;23.40;99.90
670;DHT22;317;48.758;9.302;2022-08-01T07:24:05;23.50;99.90
670;DHT22;317;48.758;9.302;2022-08-01T07:26:32;23.70;99.90
670;DHT22;317;48.758;9.302;2022-08-01T07:28:59;23.80;99.90
670;DHT22;317;48.758;9.302;2022-08-01T07:31:26;23.90;99.90
670;DHT22;317;48.758;9.302;2022-08-01T07:33:53;24.10;99.90
670;DHT22;317;48.758;9.302;2022-08-01T07:36:21;24.30;99.90
670;DHT22;317;48.758;9.302;2022-08-01T07:38:49;24.50;99.90
670;DHT22;317;48.758;9.302;2022-08-01T07:41:16;24.50;99.90
670;DHT22;317;48.758;9.302;2022-08-01T07:43:43;24.60;99.90
670;DHT22;317;48.758;9.302;2022-08-01T07:46:10;24.60;99.90
670;DHT22;317;48.758;9.302;2022-08-01T07:48:37;24.70;99.90
670;DHT22;317;48.758;9.302;2022-08-01T07:51:04;24.70;99.90
670;DHT22;317;48.758;9.302;2022-08-01T07:53:30;24.80;99.90
670;DHT22;317;48.758;9.302;2022-08-01T07:55:59;24.90;99.90
670;DHT22;317;48.758;9.302;2022-08-01T07:58:28;25.10;99.90
670;DHT22;317;48.758;9.302;2022-08-01T08:00:55;25.20;99.90
670;DHT22;317;48.758;9.302;2022-08-01T08:03:22;25.40;99.90
670;DHT22;317;48.758;9.302;2022-08-01T08:05:49;25.50;99.80
670;DHT22;317;48.758;9.302;2022-08-01T08:08:16;25.50;99.60
670;DHT22;317;48.758;9.302;2022-08-01T08:10:44;25.50;99.50
670;DHT22;317;48.758;9.302;2022-08-01T08:13:12;25.50;99.10
670;DHT22;317;48.758;9.302;2022-08-01T08:15:38;25.60;99.40
670;DHT22;317;48.758;9.302;2022-08-01T08:18:05;25.60;99.10
670;DHT22;317;48.758;9.302;2022-08-01T08:20:32;25.80;99.20
670;DHT22;317;48.758;9.302;2022-08-01T08:23:00;25.90;98.50
670;DHT22;317;48.758;9.302;2022-08-01T08:25:26;25.90;98.40
670;DHT22;317;48.758;9.302;2022-08-01T08:27:54;26.00;98.30
670;DHT22;317;48.758;9.302;2022-08-01T08:30:22;26.10;98.00
670;DHT22;317;48.758;9.302;2022-08-01T08:32:51;26.20;97.50
670;DHT22;317;48.758;9.302;2022-08-01T08:35:17;26.30;97.20
670;DHT22;317;48.758;9.302;2022-08-01T08:37:44;26.40;97.00
670;DHT22;317;48.758;9.302;2022-08-01T08:40:11;26.50;96.70
670;DHT22;317;48.758;9.302;2022-08-01T08:42:39;26.50;96.20
670;DHT22;317;48.758;9.302;2022-08-01T08:45:08;26.60;96.30
670;DHT22;317;48.758;9.302;2022-08-01T08:47:36;26.60;96.30
670;DHT22;317;48.758;9.302;2022-08-01T08:50:04;26.60;96.30
670;DHT22;317;48.758;9.302;2022-08-01T08:52:35;26.70;96.30
670;DHT22;317;48.758;9.302;2022-08-01T08:55:05;26.70;96.00
670;DHT22;317;48.758;9.302;2022-08-01T08:57:32;26.90;95.70
670;DHT22;317;48.758;9.302;2022-08-01T09:00:00;26.90;95.50
670;DHT22;317;48.758;9.302;2022-08-01T09:02:26;27.00;95.10
670;DHT22;317;48.758;9.302;2022-08-01T09:04:55;27.10;94.80
670;DHT22;317;48.758;9.302;2022-08-01T09:07:22;27.20;95.00
670;DHT22;317;48.758;9.302;2022-08-01T09:09:50;27.30;94.40
670;DHT22;317;48.758;9.302;2022-08-01T09:12:18;27.30;94.90
670;DHT22;317;48.758;9.302;2022-08-01T09:14:46;27.30;94.40
670;DHT22;317;48.758;9.302;2022-08-01T09:17:15;27.40;94.50
670;DHT22;317;48.758;9.302;2022-08-01T09:19:43;27.40;94.00
670;DHT22;317;48.758;9.302;2022-08-01T09:22:14;27.50;94.10
670;DHT22;317;48.758;9.302;2022-08-01T09:24:57;27.60;94.50
670;DHT22;317;48.758;9.302;2022-08-01T09:27:24;27.60;94.00
670;DHT22;317;48.758;9.302;2022-08-01T09:29:52;27.80;94.00
670;DHT22;317;48.758;9.302;2022-08-01T09:32:19;27.70;93.10
670;DHT22;317;48.758;9.302;2022-08-01T09:34:46;27.70;93.00
670;DHT22;317;48.758;9.302;2022-08-01T09:37:15;27.60;93.30
670;DHT22;317;48.758;9.302;2022-08-01T09:39:43;27.70;93.30
670;DHT22;317;48.758;9.302;2022-08-01T09:42:22;27.80;93.10
670;DHT22;317;48.758;9.302;2022-08-01T09:44:49;27.70;93.10
670;DHT22;317;48.758;9.302;2022-08-01T09:47:18;27.70;92.80
670;DHT22;317;48.758;9.302;2022-08-01T09:49:53;27.60;93.00
670;DHT22;317;48.758;9.302;2022-08-01T09:52:23;27.70;93.10
670;DHT22;317;48.758;9.302;2022-08-01T09:54:53;27.80;93.30
670;DHT22;317;48.758;9.302;2022-08-01T09:57:20;27.90;92.80
670;DHT22;317;48.758;9.302;2022-08-01T09:59:49;27.90;92.60
670;DHT22;317;48.758;9.302;2022-08-01T10:02:27;28.00;93.00
670;DHT22;317;48.758;9.302;2022-08-01T10:04:55;28.10;92.60
670;DHT22;317;48.758;9.302;2022-08-01T10:07:23;28.20;92.80
670;DHT22;317;48.758;9.302;2022-08-01T10:09:50;28.20;92.50
670;DHT22;317;48.758;9.302;2022-08-01T10:12:18;28.20;92.50
670;DHT22;317;48.758;9.302;2022-08-01T10:14:48;28.30;92.90
670;DHT22;317;48.758;9.302;2022-08-01T10:17:17;28.20;92.30
670;DHT22;317;48.758;9.302;2022-08-01T10:19:45;28.20;92.10
670;DHT22;317;48.758;9.302;2022-08-01T10:22:13;28.00;92.00
670;DHT22;317;48.758;9.302;2022-08-01T10:24:44;28.10;92.40
670;DHT22;317;48.758;9.302;2022-08-01T10:27:15;28.30;93.00
670;DHT22;317;48.758;9.302;2022-08-01T10:29:57;28.40;92.50
670;DHT22;317;48.758;9.302;2022-08-01T10:32:29;28.60;92.10
670;DHT22;317;48.758;9.302;2022-08-01T10:34:56;28.70;91.50
670;DHT22;317;48.758;9.302;2022-08-01T10:37:24;28.70;91.70
670;DHT22;317;48.758;9.302;2022-08-01T10:39:53;28.70;91.90
670;DHT22;317;48.758;9.302;2022-08-01T10:42:20;28.80;90.90
670;DHT22;317;48.758;9.302;2022-08-01T10:44:48;28.70;91.00
670;DHT22;317;48.758;9.302;2022-08-01T10:47:18;28.60;91.20
670;DHT22;317;48.758;9.302;2022-08-01T10:49:50;28.70;90.80
670;DHT22;317;48.758;9.302;2022-08-01T10:52:18;28.90;90.40
670;DHT22;317;48.758;9.302;2022-08-01T10:54:45;29.00;90.00
670;DHT22;317;48.758;9.302;2022-08-01T10:57:14;29.10;90.10
670;DHT22;317;48.758;9.302;2022-08-01T10:59:50;29.30;90.00
670;DHT22;317;48.758;9.302;2022-08-01T11:02:26;29.60;88.80
670;DHT22;317;48.758;9.302;2022-08-01T11:04:56;29.60;87.90
670;DHT22;317;48.758;9.302;2022-08-01T11:07:37;29.50;88.20
670;DHT22;317;48.758;9.302;2022-08-01T11:10:10;29.60;88.90
670;DHT22;317;48.758;9.302;2022-08-01T11:12:43;29.50;88.90
670;DHT22;317;48.758;9.302;2022-08-01T11:15:24;29.40;88.50
670;DHT22;317;48.758;9.302;2022-08-01T11:17:53;29.40;88.60
670;DHT22;317;48.758;9.302;2022-08-01T11:20:21;29.30;88.30
670;DHT22;317;48.758;9.302;2022-08-01T11:23:23;29.20;88.50
670;DHT22;317;48.758;9.302;2022-08-01T11:26:16;29.10;87.10
670;DHT22;317;48.758;9.302;2022-08-01T11:28:46;29.10;87.80
670;DHT22;317;48.758;9.302;2022-08-01T11:31:33;29.10;88.00
670;DHT22;317;48.758;9.302;2022-08-01T11:34:00;29.20;87.70
670;DHT22;317;48.758;9.302;2022-08-01T11:36:29;29.30;87.80
670;DHT22;317;48.758;9.302;2022-08-01T11:39:16;29.50;87.30
670;DHT22;317;48.758;9.302;2022-08-01T11:41:45;29.80;86.60
670;DHT22;317;48.758;9.302;2022-08-01T11:44:16;29.90;85.50
670;DHT22;317;48.758;9.302;2022-08-01T11:46:55;29.80;84.50
670;DHT22;317;48.758;9.302;2022-08-01T11:49:26;29.70;84.30
670;DHT22;317;48.758;9.302;2022-08-01T11:52:01;29.60;84.50
670;DHT22;317;48.758;9.302;2022-08-01T11:54:30;29.60;84.80
670;DHT22;317;48.758;9.302;2022-08-01T11:56:58;29.50;84.60
670;DHT22;317;48.758;9.302;2022-08-01T11:59:28;29.30;84.50
670;DHT22;317;48.758;9.302;2022-08-01T12:01:55;29.10;84.40
670;DHT22;317;48.758;9.302;2022-08-01T12:04:21;29.00;85.80
670;DHT22;317;48.758;9.302;2022-08-01T12:06:49;29.00;85.90
670;DHT22;317;48.758;9.302;2022-08-01T12:09:21;28.90;84.80
670;DHT22;317;48.758;9.302;2022-08-01T12:11:49;28.80;84.40
670;DHT22;317;48.758;9.302;2022-08-01T12:14:18;28.80;84.80
670;DHT22;317;48.758;9.302;2022-08-01T12:16:51;29.00;85.20
670;DHT22;317;48.758;9.302;2022-08-01T12:19:20;29.30;84.30
670;DHT22;317;48.758;9.302;2022-08-01T12:22:07;29.50;83.60
670;DHT22;317;48.758;9.302;2022-08-01T12:24:34;29.70;83.00
670;DHT22;317;48.758;9.302;2022-08-01T12:27:02;30.00;82.10
670;DHT22;317;48.758;9.302;2022-08-01T12:29:36;30.00;82.30
670;DHT22;317;48.758;9.302;2022-08-01T12:32:21;30.20;83.10
670;DHT22;317;48.758;9.302;2022-08-01T12:34:48;30.30;82.70
670;DHT22;317;48.758;9.302;2022-08-01T12:37:16;30.60;82.90
670;DHT22;317;48.758;9.302;2022-08-01T12:39:43;31.20;81.10
670;DHT22;317;48.758;9.302;2022-08-01T12:42:11;31.80;79.60
670;DHT22;317;48.758;9.302;2022-08-01T12:44:39;32.40;77.70
670;DHT22;317;48.758;9.302;2022-08-01T12:47:09;32.70;76.40
670;DHT22;317;48.758;9.302;2022-08-01T12:49:37;32.70;74.50
670;DHT22;317;48.758;9.302;2022-08-01T12:52:04;32.60;73.60
670;DHT22;317;48.758;9.302;2022-08-01T12:55:02;32.40;74.30
670;DHT22;317;48.758;9.302;2022-08-01T12:57:30;32.10;73.30
670;DHT22;317;48.758;9.302;2022-08-01T13:00:12;31.80;74.00
670;DHT22;317;48.758;9.302;2022-08-01T13:02:41;31.50;75.20
670;DHT22;317;48.758;9.302;2022-08-01T13:05:10;31.10;75.70
670;DHT22;317;48.758;9.302;2022-08-01T13:07:48;31.10;76.60
670;DHT22;317;48.758;9.302;2022-08-01T13:10:25;31.40;76.50
670;DHT22;317;48.758;9.302;2022-08-01T13:12:54;31.90;75.70
670;DHT22;317;48.758;9.302;2022-08-01T13:15:27;32.40;75.00
670;DHT22;317;48.758;9.302;2022-08-01T13:17:59;33.10;72.60
670;DHT22;317;48.758;9.302;2022-08-01T13:20:31;33.70;71.10
670;DHT22;317;48.758;9.302;2022-08-01T13:23:14;33.90;69.40
670;DHT22;317;48.758;9.302;2022-08-01T13:25:48;34.10;68.80
670;DHT22;317;48.758;9.302;2022-08-01T13:28:17;34.20;68.80
670;DHT22;317;48.758;9.302;2022-08-01T13:30:59;34.20;68.50
670;DHT22;317;48.758;9.302;2022-08-01T13:33:39;34.00;67.80
670;DHT22;317;48.758;9.302;2022-08-01T13:36:07;34.40;67.60
670;DHT22;317;48.758;9.302;2022-08-01T13:38:39;34.90;66.00
670;DHT22;317;48.758;9.302;2022-08-01T13:41:24;35.20;64.40
670;DHT22;317;48.758;9.302;2022-08-01T13:43:50;35.40;64.00
670;DHT22;317;48.758;9.302;2022-08-01T13:46:18;35.60;63.20
670;DHT22;317;48.758;9.302;2022-08-01T13:48:46;35.20;62.90
670;DHT22;317;48.758;9.302;2022-08-01T13:51:13;34.80;63.40
670;DHT22;317;48.758;9.302;2022-08-01T13:53:40;34.50;64.20
670;DHT22;317;48.758;9.302;2022-08-01T13:56:07;34.50;63.90
670;DHT22;317;48.758;9.302;2022-08-01T13:58:34;34.70;64.50
670;DHT22;317;48.758;9.302;2022-08-01T14:01:01;35.00;63.40
670;DHT22;317;48.758;9.302;2022-08-01T14:03:27;35.20;61.70
670;DHT22;317;48.758;9.302;2022-08-01T14:05:56;35.30;61.40
670;DHT22;317;48.758;9.302;2022-08-01T14:08:22;35.30;61.70
670;DHT22;317;48.758;9.302;2022-08-01T14:10:49;35.20;61.10
670;DHT22;317;48.758;9.302;2022-08-01T14:13:17;35.20;61.10
670;DHT22;317;48.758;9.302;2022-08-01T14:15:44;35.30;61.30
670;DHT22;317;48.758;9.302;2022-08-01T14:18:11;35.20;60.70
670;DHT22;317;48.758;9.302;2022-08-01T14:20:38;35.10;61.50
670;DHT22;317;48.758;9.302;2022-08-01T14:23:07;35.00;62.00
670;DHT22;317;48.758;9.302;2022-08-01T14:25:34;34.70;61.30
670;DHT22;317;48.758;9.302;2022-08-01T14:28:01;34.50;61.70
670;DHT22;317;48.758;9.302;2022-08-01T14:30:27;34.70;61.90
670;DHT22;317;48.758;9.302;2022-08-01T14:32:54;35.00;60.20
670;DHT22;317;48.758;9.302;2022-08-01T14:35:22;35.20;60.90
670;DHT22;317;48.758;9.302;2022-08-01T14:37:48;35.00;60.30
670;DHT22;317;48.758;9.302;2022-08-01T14:40:17;34.90;60.70
670;DHT22;317;48.758;9.302;2022-08-01T14:42:44;35.10;60.50
670;DHT22;317;48.758;9.302;2022-08-01T14:45:11;35.00;59.50
670;DHT22;317;48.758;9.302;2022-08-01T14:47:41;35.00;59.30
670;DHT22;317;48.758;9.302;2022-08-01T14:50:10;34.50;59.70
670;DHT22;317;48.758;9.302;2022-08-01T14:52:38;34.10;60.60
670;DHT22;317;48.758;9.302;2022-08-01T14:55:06;33.80;60.90
670;DHT22;317;48.758;9.302;2022-08-01T14:57:35;33.70;61.00
670;DHT22;317;48.758;9.302;2022-08-01T15:00:04;33.60;61.90
670;DHT22;317;48.758;9.302;2022-08-01T15:02:31;33.30;61.50
670;DHT22;317;48.758;9.302;2022-08-01T15:04:58;33.20;62.30
670;DHT22;317;48.758;9.302;2022-08-01T15:07:25;33.20;62.60
670;DHT22;317;48.758;9.302;2022-08-01T15:09:52;33.30;62.60
670;DHT22;317;48.758;9.302;2022-08-01T15:12:19;33.60;61.90
670;DHT22;317;48.758;9.302;2022-08-01T15:14:47;34.10;61.00
670;DHT22;317;48.758;9.302;2022-08-01T15:17:14;34.60;60.20
670;DHT22;317;48.758;9.302;2022-08-01T15:19:41;35.20;59.00
670;DHT22;317;48.758;9.302;2022-08-01T15:22:08;35.50;58.10
670;DHT22;317;48.758;9.302;2022-08-01T15:24:35;35.50;58.20
670;DHT22;317;48.758;9.302;2022-08-01T15:27:02;35.60;58.40
670;DHT22;317;48.758;9.302;2022-08-01T15:29:29;36.00;58.00
670;DHT22;317;48.758;9.302;2022-08-01T15:31:57;36.50;58.00
670;DHT22;317;48.758;9.302;2022-08-01T15:34:24;36.40;56.80
670;DHT22;317;48.758;9.302;2022-08-01T15:36:51;36.00;56.90
670;DHT22;317;48.758;9.302;2022-08-01T15:39:19;35.50;57.10
670;DHT22;317;48.758;9.302;2022-08-01T15:41:46;35.00;57.80
670;DHT22;317;48.758;9.302;2022-08-01T15:44:13;34.70;58.60
670;DHT22;317;48.758;9.302;2022-08-01T15:46:40;34.50;58.50
670;DHT22;317;48.758;9.302;2022-08-01T15:49:08;34.10;58.70
670;DHT22;317;48.758;9.302;2022-08-01T15:51:36;34.00;58.60
670;DHT22;317;48.758;9.302;2022-08-01T15:54:03;33.90;58.60
670;DHT22;317;48.758;9.302;2022-08-01T15:56:31;33.80;59.30
670;DHT22;317;48.758;9.302;2022-08-01T15:58:59;33.60;59.10
670;DHT22;317;48.758;9.302;2022-08-01T16:01:26;33.40;58.80
670;DHT22;317;48.758;9.302;2022-08-01T16:03:54;32.90;59.60
670;DHT22;317;48.758;9.302;2022-08-01T16:06:23;32.70;60.10
670;DHT22;317;48.758;9.302;2022-08-01T16:08:50;32.50;60.60
670;DHT22;317;48.758;9.302;2022-08-01T16:11:17;32.40;60.60
670;DHT22;317;48.758;9.302;2022-08-01T16:13:44;32.20;61.60
670;DHT22;317;48.758;9.302;2022-08-01T16:16:13;32.00;61.40
670;DHT22;317;48.758;9.302;2022-08-01T16:18:41;31.80;61.50
670;DHT22;317;48.758;9.302;2022-08-01T16:21:08;31.60;61.50
670;DHT22;317;48.758;9.302;2022-08-01T16:23:37;31.50;62.10
670;DHT22;317;48.758;9.302;2022-08-01T16:26:04;31.40;62.40
670;DHT22;317;48.758;9.302;2022-08-01T16:28:31;31.20;62.50
670;DHT22;317;48.758;9.302;2022-08-01T16:30:58;31.20;62.10
670;DHT22;317;48.758;9.302;2022-08-01T16:33:25;31.10;62.80
670;DHT22;317;48.758;9.302;2022-08-01T16:35:51;30.90;62.20
670;DHT22;317;48.758;9.302;2022-08-01T16:38:19;30.80;63.20
670;DHT22;317;48.758;9.302;2022-08-01T16:40:47;30.70;63.40
670;DHT22;317;48.758;9.302;2022-08-01T16:43:14;30.60;63.30
670;DHT22;317;48.758;9.302;2022-08-01T16:45:41;30.30;64.00
670;DHT22;317;48.758;9.302;2022-08-01T16:48:08;30.20;64.20